createdAt,value
2018-02-24T00:00:16.747Z,101606.47
2018-02-24T00:02:45.153Z,101605.83
2018-02-24T00:05:14.532Z,101609.66
2018-02-24T00:07:42.915Z,101605.38
2018-02-24T00:10:11.383Z,101602.86
2018-02-24T00:12:40.714Z,101606.73
2018-02-24T00:15:09.129Z,101605.58
2018-02-24T00:17:37.527Z,101599.69
2018-02-24T00:20:06.797Z,101600.88
2018-02-24T00:22:44.685Z,101599.87
2018-02-24T00:25:13.101Z,101597.74
2018-02-24T00:27:41.481Z,101608.03
2018-02-24T00:30:09.918Z,101612.16
2018-02-24T00:32:38.336Z,101618.16
2018-02-24T00:35:06.834Z,101614.11
2018-02-24T00:37:35.264Z,101615.88
2018-02-24T00:40:03.655Z,101618.69
2018-02-24T00:42:32.831Z,101616.03
2018-02-24T00:45:01.219Z,101614.81
2018-02-24T00:47:30.399Z,101618.75
2018-02-24T00:49:58.791Z,101622.83
2018-02-24T00:52:27.975Z,101621.67
2018-02-24T00:54:56.346Z,101625.41
2018-02-24T00:57:25.585Z,101625.57
2018-02-24T00:59:54.835Z,101628.25
2018-02-24T01:02:23.218Z,101621.62
2018-02-24T01:04:51.606Z,101629.05
2018-02-24T01:07:20.020Z,101626.84
2018-02-24T01:09:49.176Z,101629.69
2018-02-24T01:12:17.581Z,101634.76
2018-02-24T01:14:46.005Z,101627.78
2018-02-24T01:17:14.405Z,101638.40
2018-02-24T01:19:42.974Z,101626.05
2018-02-24T01:22:11.400Z,101626.07
2018-02-24T01:24:39.949Z,101621.50
2018-02-24T01:27:08.339Z,101624.87
2018-02-24T01:29:36.734Z,101620.98
2018-02-24T01:32:05.135Z,101629.25
2018-02-24T01:34:33.535Z,101622.89
2018-02-24T01:37:02.715Z,101625.61
2018-02-24T01:39:31.095Z,101632.37
2018-02-24T01:41:59.498Z,101631.36
2018-02-24T01:44:28.651Z,101638.24
2018-02-24T01:46:57.102Z,101640.87
2018-02-24T01:49:25.740Z,101641.13
2018-02-24T01:51:54.159Z,101648.61
2018-02-24T01:54:22.575Z,101644.98
2018-02-24T01:56:51.047Z,101654.30
2018-02-24T01:59:19.470Z,101646.94
2018-02-24T02:01:48.661Z,101645.61
2018-02-24T02:04:18.119Z,101645.69
2018-02-24T02:06:46.520Z,101644.02
2018-02-24T02:09:14.914Z,101640.66
2018-02-24T02:11:43.462Z,101636.06
2018-02-24T02:14:11.926Z,101640.05
2018-02-24T02:16:40.332Z,101641.41
2018-02-24T02:19:08.720Z,101640.27
2018-02-24T02:21:37.158Z,101635.50
2018-02-24T02:24:06.358Z,101638.77
2018-02-24T02:26:34.740Z,101640.41
2018-02-24T02:29:03.913Z,101627.84
2018-02-24T02:31:32.295Z,101631.52
2018-02-24T02:34:01.694Z,101627.78
2018-02-24T02:36:30.052Z,101637.84
2018-02-24T02:38:58.512Z,101636.75
2018-02-24T02:41:27.030Z,101639.56
2018-02-24T02:43:56.205Z,101647.80
2018-02-24T02:46:24.596Z,101646.23
2018-02-24T02:48:53.013Z,101647.95
2018-02-24T02:51:22.177Z,101643.91
2018-02-24T02:53:50.568Z,101632.86
2018-02-24T02:56:18.958Z,101641.48
2018-02-24T02:58:47.335Z,101650.43
2018-02-24T03:01:15.759Z,101655.83
2018-02-24T03:03:44.140Z,101653.25
2018-02-24T03:06:12.560Z,101655.91
2018-02-24T03:08:40.982Z,101660.23
2018-02-24T03:11:09.399Z,101659.20
2018-02-24T03:13:37.783Z,101657.85
2018-02-24T03:16:06.175Z,101655.98
2018-02-24T03:18:34.561Z,101659.12
2018-02-24T03:21:03.009Z,101656.67
2018-02-24T03:23:31.395Z,101660.02
2018-02-24T03:25:59.823Z,101661.50
2018-02-24T03:28:28.984Z,101665.30
2018-02-24T03:30:58.290Z,101663.45
2018-02-24T03:33:26.674Z,101660.17
2018-02-24T03:35:55.065Z,101658.15
2018-02-24T03:38:23.463Z,101655.80
2018-02-24T03:40:51.994Z,101657.51
2018-02-24T03:43:20.488Z,101663.66
2018-02-24T03:45:54.299Z,101672.10
2018-02-24T03:48:22.860Z,101670.33
2018-02-24T03:50:51.237Z,101668.41
2018-02-24T03:53:19.631Z,101673.25
2018-02-24T03:55:48.006Z,101669.84
2018-02-24T03:58:16.415Z,101676.89
2018-02-24T04:00:44.847Z,101679.20
2018-02-24T04:03:13.292Z,101677.26
2018-02-24T04:05:42.461Z,101684.02
2018-02-24T04:08:10.951Z,101675.31
2018-02-24T04:10:39.323Z,101680.13
2018-02-24T04:13:07.728Z,101673.81
2018-02-24T04:15:36.110Z,101674.28
2018-02-24T04:18:04.515Z,101679.44
2018-02-24T04:20:33.681Z,101681.86
2018-02-24T04:23:02.048Z,101689.68
2018-02-24T04:25:31.268Z,101687.73
2018-02-24T04:27:59.872Z,101693.98
2018-02-24T04:30:28.289Z,101693.51
2018-02-24T04:32:56.698Z,101688.45
2018-02-24T04:35:25.178Z,101694.09
2018-02-24T04:37:53.619Z,101700.20
2018-02-24T04:40:22.795Z,101704.73
2018-02-24T04:42:52.240Z,101699.89
2018-02-24T04:45:20.614Z,101698.82
2018-02-24T04:47:49.318Z,101699.33
2018-02-24T04:50:17.851Z,101701.22
2018-02-24T04:52:46.231Z,101705.63
2018-02-24T04:55:15.402Z,101700.89
2018-02-24T04:57:43.807Z,101708.30
2018-02-24T05:00:12.993Z,101709.92
2018-02-24T05:02:41.404Z,101702.22
2018-02-24T05:05:10.600Z,101701.65
2018-02-24T05:07:38.974Z,101698.05
2018-02-24T05:10:08.151Z,101704.47
2018-02-24T05:12:36.542Z,101698.81
2018-02-24T05:15:04.932Z,101697.03
2018-02-24T05:17:33.383Z,101697.94
2018-02-24T05:20:01.896Z,101703.53
2018-02-24T05:22:30.279Z,101708.28
2018-02-24T05:24:59.451Z,101714.84
2018-02-24T05:27:27.845Z,101714.85
2018-02-24T05:29:56.279Z,101714.28
2018-02-24T05:32:24.657Z,101714.40
2018-02-24T05:34:53.062Z,101716.25
2018-02-24T05:37:21.507Z,101717.76
2018-02-24T05:39:49.922Z,101718.20
2018-02-24T05:42:18.303Z,101718.73
2018-02-24T05:44:46.708Z,101723.43
2018-02-24T05:47:15.126Z,101725.69
2018-02-24T05:49:44.565Z,101720.00
2018-02-24T05:52:12.966Z,101721.40
2018-02-24T05:54:41.365Z,101722.19
2018-02-24T05:57:10.512Z,101719.48
2018-02-24T05:59:38.930Z,101724.89
2018-02-24T06:02:07.479Z,101726.59
2018-02-24T06:04:35.893Z,101730.73
2018-02-24T06:07:04.332Z,101729.44
2018-02-24T06:09:32.712Z,101726.03
2018-02-24T06:12:01.279Z,101726.58
2018-02-24T06:14:30.481Z,101737.30
2018-02-24T06:16:59.653Z,101736.48
2018-02-24T06:19:28.038Z,101738.33
2018-02-24T06:21:57.291Z,101738.47
2018-02-24T06:24:25.668Z,101743.39
2018-02-24T06:26:54.188Z,101748.44
2018-02-24T06:29:22.611Z,101743.66
2018-02-24T06:31:52.139Z,101742.05
2018-02-24T06:34:21.918Z,101748.33
2018-02-24T06:36:53.316Z,101746.69
2018-02-24T06:39:21.888Z,101747.72
2018-02-24T06:41:50.446Z,101757.77
2018-02-24T06:44:20.936Z,101755.83
2018-02-24T06:46:49.384Z,101760.09
2018-02-24T06:49:18.095Z,101763.13
2018-02-24T06:51:46.541Z,101766.19
2018-02-24T06:54:15.730Z,101769.01
2018-02-24T06:56:57.975Z,101766.11
2018-02-24T06:59:27.329Z,101768.77
2018-02-24T07:01:56.542Z,101768.97
2018-02-24T07:04:26.040Z,101769.53
2018-02-24T07:06:55.195Z,101772.58
2018-02-24T07:09:23.584Z,101775.74
2018-02-24T07:11:52.036Z,101778.27
2018-02-24T07:14:20.442Z,101782.31
2018-02-24T07:16:48.846Z,101778.31
2018-02-24T07:19:17.278Z,101784.36
2018-02-24T07:21:45.670Z,101778.91
2018-02-24T07:24:14.111Z,101779.49
2018-02-24T07:26:42.474Z,101773.70
2018-02-24T07:29:12.668Z,101772.52
2018-02-24T07:31:41.159Z,101772.67
2018-02-24T07:34:09.556Z,101777.85
2018-02-24T07:36:38.219Z,101776.08
2018-02-24T07:39:06.606Z,101778.52
2018-02-24T07:41:35.003Z,101781.42
2018-02-24T07:44:03.440Z,101779.41
2018-02-24T07:46:31.884Z,101787.14
2018-02-24T07:49:01.075Z,101785.80
2018-02-24T07:51:30.284Z,101786.08
2018-02-24T07:53:59.834Z,101784.12
2018-02-24T07:56:28.258Z,101789.03
2018-02-24T07:58:56.659Z,101788.97
2018-02-24T08:01:25.839Z,101781.78
2018-02-24T08:03:54.279Z,101782.39
2018-02-24T08:06:22.675Z,101781.88
2018-02-24T08:08:51.059Z,101785.89
2018-02-24T08:11:20.403Z,101785.61
2018-02-24T08:13:48.807Z,101792.36
2018-02-24T08:16:17.979Z,101793.05
2018-02-24T08:18:46.420Z,101791.44
2018-02-24T08:21:14.811Z,101785.11
2018-02-24T08:23:43.240Z,101789.97
2018-02-24T08:26:12.412Z,101788.85
2018-02-24T08:28:40.837Z,101787.56
2018-02-24T08:31:09.236Z,101787.45
2018-02-24T08:33:37.826Z,101776.20
2018-02-24T08:36:06.252Z,101780.19
2018-02-24T08:38:35.448Z,101778.09
2018-02-24T08:41:03.884Z,101777.84
2018-02-24T08:43:32.310Z,101775.72
2018-02-24T08:46:00.748Z,101771.66
2018-02-24T08:48:29.154Z,101777.27
2018-02-24T08:50:57.524Z,101774.41
2018-02-24T08:53:25.959Z,101784.80
2018-02-24T08:55:54.459Z,101775.98
2018-02-24T08:58:22.851Z,101783.23
2018-02-24T09:00:51.276Z,101774.92
2018-02-24T09:03:20.474Z,101783.22
2018-02-24T09:05:49.285Z,101785.78
2018-02-24T09:08:17.786Z,101795.02
2018-02-24T09:10:46.425Z,101786.42
2018-02-24T09:13:14.818Z,101790.08
2018-02-24T09:15:43.979Z,101792.77
2018-02-24T09:18:12.391Z,101795.52
2018-02-24T09:20:41.580Z,101799.99
2018-02-24T09:23:09.999Z,101793.88
2018-02-24T09:25:38.413Z,101801.95
2018-02-24T09:28:17.764Z,101797.16
2018-02-24T09:30:46.329Z,101801.38
2018-02-24T09:33:14.970Z,101798.35
2018-02-24T09:35:44.875Z,101778.61
2018-02-24T09:38:14.093Z,101783.52
2018-02-24T09:41:02.037Z,101790.02
2018-02-24T09:43:30.535Z,101784.21
2018-02-24T09:45:58.903Z,101781.06
2018-02-24T09:48:27.295Z,101780.91
2018-02-24T09:50:55.895Z,101780.06
2018-02-24T09:53:24.296Z,101780.39
2018-02-24T09:55:52.735Z,101778.27
2018-02-24T09:58:21.814Z,101787.78
2018-02-24T10:00:50.980Z,101792.52
2018-02-24T10:03:19.407Z,101787.14
2018-02-24T10:05:47.783Z,101794.12
2018-02-24T10:08:16.200Z,101798.50
2018-02-24T10:10:44.675Z,101807.70
2018-02-24T10:13:14.160Z,101805.45
2018-02-24T10:15:42.563Z,101801.50
2018-02-24T10:18:11.072Z,101806.89
2018-02-24T10:20:39.625Z,101815.50
2018-02-24T10:23:08.412Z,101819.47
2018-02-24T10:25:36.871Z,101812.69
2018-02-24T10:28:06.061Z,101814.69
2018-02-24T10:30:34.558Z,101818.48
2018-02-24T10:33:03.117Z,101819.82
2018-02-24T10:35:45.757Z,101819.65
2018-02-24T10:38:14.320Z,101820.48
2018-02-24T10:40:45.514Z,101811.38
2018-02-24T10:43:13.898Z,101817.98
2018-02-24T10:45:42.317Z,101814.10
2018-02-24T10:48:11.488Z,101810.07
2018-02-24T10:50:40.064Z,101813.94
2018-02-24T10:53:08.483Z,101820.63
2018-02-24T10:55:36.977Z,101810.42
2018-02-24T10:58:05.564Z,101820.67
2018-02-24T11:00:33.967Z,101812.93
2018-02-24T11:03:03.172Z,101809.17
2018-02-24T11:05:31.636Z,101803.66
2018-02-24T11:08:01.011Z,101814.92
2018-02-24T11:10:29.421Z,101806.16
2018-02-24T11:12:58.689Z,101807.45
2018-02-24T11:15:28.050Z,101801.97
2018-02-24T11:17:56.448Z,101803.00
2018-02-24T11:20:24.883Z,101797.25
2018-02-24T11:22:53.294Z,101792.76
2018-02-24T11:25:21.768Z,101787.95
2018-02-24T11:27:50.926Z,101798.18
2018-02-24T11:30:19.316Z,101797.65
2018-02-24T11:32:47.717Z,101801.45
2018-02-24T11:35:16.102Z,101804.30
2018-02-24T11:37:44.480Z,101799.53
2018-02-24T11:40:13.151Z,101807.30
2018-02-24T11:42:41.797Z,101794.92
2018-02-24T11:45:10.270Z,101805.25
2018-02-24T11:47:39.600Z,101797.14
2018-02-24T11:50:08.253Z,101784.64
2018-02-24T11:52:36.753Z,101784.70
2018-02-24T11:55:05.912Z,101779.48
2018-02-24T11:57:35.049Z,101787.14
2018-02-24T12:00:04.215Z,101791.25
2018-02-24T12:02:32.614Z,101782.20
2018-02-24T12:05:01.935Z,101783.08
2018-02-24T12:07:31.384Z,101778.92
2018-02-24T12:09:59.805Z,101780.81
2018-02-24T12:12:29.014Z,101779.90
2018-02-24T12:14:57.655Z,101780.55
2018-02-24T12:17:26.136Z,101779.56
2018-02-24T12:19:54.860Z,101779.52
2018-02-24T12:22:27.069Z,101776.97
2018-02-24T12:24:55.946Z,101783.41
2018-02-24T12:27:27.652Z,101780.45
2018-02-24T12:29:56.103Z,101772.91
2018-02-24T12:32:24.585Z,101771.46
2018-02-24T12:34:53.167Z,101754.23
2018-02-24T12:37:21.584Z,101766.00
2018-02-24T12:39:50.012Z,101770.20
2018-02-24T12:42:19.198Z,101763.86
2018-02-24T12:44:48.395Z,101759.93
2018-02-24T12:47:17.325Z,101759.93
2018-02-24T12:49:45.879Z,101757.18
2018-02-24T12:52:15.061Z,101756.42
2018-02-24T12:54:43.518Z,101757.81
2018-02-24T12:57:11.930Z,101755.15
2018-02-24T12:59:40.404Z,101754.19
2018-02-24T13:02:08.783Z,101754.52
2018-02-24T13:04:38.118Z,101752.17
2018-02-24T13:07:07.489Z,101753.67
2018-02-24T13:09:35.947Z,101748.25
2018-02-24T13:12:04.486Z,101751.63
2018-02-24T13:14:33.637Z,101750.02
2018-02-24T13:17:02.064Z,101750.09
2018-02-24T13:19:31.374Z,101741.95
2018-02-24T13:22:00.782Z,101744.97
2018-02-24T13:24:29.207Z,101746.34
2018-02-24T13:26:58.003Z,101754.72
2018-02-24T13:29:26.456Z,101750.34
2018-02-24T13:31:54.842Z,101762.50
2018-02-24T13:34:23.247Z,101751.45
2018-02-24T13:36:52.047Z,101749.45
2018-02-24T13:39:20.632Z,101758.33
2018-02-24T13:41:49.022Z,101752.03
2018-02-24T13:44:17.465Z,101773.34
2018-02-24T13:46:45.896Z,101755.36
2018-02-24T13:49:14.291Z,101767.87
2018-02-24T13:51:42.733Z,101766.82
2018-02-24T13:54:11.156Z,101770.39
2018-02-24T13:56:39.573Z,101763.52
2018-02-24T13:59:07.983Z,101768.50
2018-02-24T14:01:36.425Z,101768.97
2018-02-24T14:04:05.681Z,101760.92
2018-02-24T14:06:34.106Z,101767.36
2018-02-24T14:09:03.320Z,101772.55
2018-02-24T14:11:33.259Z,101772.55
2018-02-24T14:14:01.661Z,101770.55
2018-02-24T14:16:30.056Z,101773.40
2018-02-24T14:18:58.464Z,101779.00
2018-02-24T14:21:27.819Z,101771.66
2018-02-24T14:23:56.208Z,101765.63
2018-02-24T14:26:24.660Z,101790.66
2018-02-24T14:28:53.154Z,101793.31
2018-02-24T14:31:21.778Z,101786.66
2018-02-24T14:33:50.482Z,101780.28
2018-02-24T14:36:18.887Z,101794.09
2018-02-24T14:38:48.439Z,101801.81
2018-02-24T14:41:16.847Z,101794.53
2018-02-24T14:43:45.366Z,101790.55
2018-02-24T14:46:14.184Z,101789.69
2018-02-24T14:48:44.576Z,101787.86
2018-02-24T14:51:13.771Z,101794.59
2018-02-24T14:53:43.050Z,101799.27
2018-02-24T14:56:12.340Z,101793.16
2018-02-24T14:58:40.742Z,101788.77
2018-02-24T15:01:09.120Z,101795.83
2018-02-24T15:03:37.507Z,101798.33
2018-02-24T15:06:06.043Z,101802.10
2018-02-24T15:08:34.477Z,101796.32
2018-02-24T15:11:03.803Z,101807.05
2018-02-24T15:13:32.959Z,101810.46
2018-02-24T15:16:01.420Z,101795.62
2018-02-24T15:18:29.839Z,101804.30
2018-02-24T15:20:58.392Z,101801.61
2018-02-24T15:23:27.610Z,101807.24
2018-02-24T15:25:56.021Z,101807.75
2018-02-24T15:28:25.290Z,101808.16
2018-02-24T15:30:53.714Z,101808.30
2018-02-24T15:33:22.850Z,101815.80
2018-02-24T15:35:51.333Z,101819.91
2018-02-24T15:38:19.715Z,101822.74
2018-02-24T15:40:48.287Z,101817.44
2018-02-24T15:43:16.696Z,101822.25
2018-02-24T15:45:45.246Z,101833.45
2018-02-24T15:48:13.632Z,101839.02
2018-02-24T15:50:42.098Z,101840.56
2018-02-24T15:53:10.750Z,101835.71
2018-02-24T15:55:39.199Z,101847.63
2018-02-24T15:58:07.606Z,101854.37
2018-02-24T16:00:36.150Z,101854.18
2018-02-24T16:03:04.700Z,101855.62
2018-02-24T16:08:26.810Z,101863.64
2018-02-24T16:10:55.582Z,101870.04
2018-02-24T16:13:24.183Z,101868.70
2018-02-24T16:15:52.746Z,101879.43
2018-02-24T16:18:24.435Z,101873.40
2018-02-24T16:20:53.102Z,101875.80
2018-02-24T16:23:21.611Z,101879.42
2018-02-24T16:25:50.040Z,101887.53
2018-02-24T16:28:18.636Z,101885.08
2018-02-24T16:30:47.376Z,101881.95
2018-02-24T16:33:16.545Z,101886.91
2018-02-24T16:35:44.981Z,101890.01
2018-02-24T16:38:13.518Z,101895.50
2018-02-24T16:40:41.934Z,101899.08
2018-02-24T16:43:10.520Z,101897.71
2018-02-24T16:45:38.943Z,101902.18
2018-02-24T16:48:07.468Z,101905.70
2018-02-24T16:50:35.870Z,101905.80
2018-02-24T16:53:04.306Z,101908.75
2018-02-24T16:55:32.865Z,101911.27
2018-02-24T16:58:01.271Z,101909.45
2018-02-24T17:00:30.691Z,101906.22
2018-02-24T17:02:59.979Z,101916.20
2018-02-24T17:05:29.209Z,101916.62
2018-02-24T17:07:57.587Z,101919.80
2018-02-24T17:10:26.107Z,101925.28
2018-02-24T17:12:54.516Z,101924.48
2018-02-24T17:15:24.512Z,101923.20
2018-02-24T17:17:52.901Z,101920.55
2018-02-24T17:20:21.287Z,101930.11
2018-02-24T17:22:50.563Z,101926.27
2018-02-24T17:25:18.982Z,101924.67
2018-02-24T17:27:48.140Z,101934.17
2018-02-24T17:30:16.573Z,101939.14
2018-02-24T17:32:45.762Z,101937.08
2018-02-24T17:35:17.243Z,101944.63
2018-02-24T17:37:45.719Z,101944.87
2018-02-24T17:40:14.183Z,101941.58
2018-02-24T17:42:43.381Z,101943.58
2018-02-24T17:45:12.704Z,101944.53
2018-02-24T17:47:41.087Z,101947.63
2018-02-24T17:50:09.476Z,101947.95
2018-02-24T17:52:37.979Z,101949.20
2018-02-24T17:55:06.492Z,101954.67
2018-02-24T17:57:34.903Z,101956.31
2018-02-24T18:00:04.023Z,101950.92
2018-02-24T18:02:32.432Z,101954.99
2018-02-24T18:05:00.820Z,101963.42
2018-02-24T18:07:29.238Z,101963.28
2018-02-24T18:09:58.527Z,101962.27
2018-02-24T18:12:27.779Z,101967.73
2018-02-24T18:15:03.723Z,101972.94
2018-02-24T18:17:32.532Z,101971.34
2018-02-24T18:20:01.165Z,101976.78
2018-02-24T18:22:31.016Z,101975.23
2018-02-24T18:24:59.456Z,101972.37
2018-02-24T18:27:28.811Z,101978.45
2018-02-24T18:29:58.406Z,101976.06
2018-02-24T18:32:26.901Z,101980.47
2018-02-24T18:34:55.497Z,101972.58
2018-02-24T18:37:24.057Z,101978.13
2018-02-24T18:39:52.623Z,101987.98
2018-02-24T18:42:21.287Z,101984.77
2018-02-24T18:44:50.479Z,101975.81
2018-02-24T18:47:18.987Z,101981.41
2018-02-24T18:49:48.166Z,101982.18
2018-02-24T18:52:17.411Z,101980.00
2018-02-24T18:54:47.563Z,101978.16
2018-02-24T18:57:15.970Z,101974.06
2018-02-24T18:59:45.250Z,101980.91
2018-02-24T19:02:13.656Z,101972.56
2018-02-24T19:04:42.808Z,101974.33
2018-02-24T19:07:11.240Z,101978.95
2018-02-24T19:09:40.474Z,101977.03
2018-02-24T19:12:08.893Z,101974.23
2018-02-24T19:14:37.436Z,101979.88
2018-02-24T19:17:06.585Z,101983.76
2018-02-24T19:19:35.033Z,101987.05
2018-02-24T19:22:03.861Z,101990.16
2018-02-24T19:24:33.067Z,101992.50
2018-02-24T19:27:03.006Z,102001.03
2018-02-24T19:29:31.433Z,102000.81
2018-02-24T19:32:00.032Z,101998.92
2018-02-24T19:34:28.701Z,102003.95
2018-02-24T19:36:57.155Z,102002.39
2018-02-24T19:39:25.935Z,102004.83
2018-02-24T19:41:54.524Z,102014.21
2018-02-24T19:44:22.905Z,102013.98
2018-02-24T19:46:51.323Z,102012.16
2018-02-24T19:49:19.997Z,102010.11
2018-02-24T19:51:48.406Z,102012.44
2018-02-24T19:54:16.792Z,102011.11
2018-02-24T19:56:45.250Z,102007.08
2018-02-24T19:59:13.756Z,102014.81
2018-02-24T20:01:42.968Z,102011.94
2018-02-24T20:04:12.144Z,102010.10
2018-02-24T20:06:40.612Z,102012.07
2018-02-24T20:09:09.028Z,102018.34
2018-02-24T20:11:37.458Z,102014.04
2018-02-24T20:14:06.622Z,102016.23
2018-02-24T20:16:35.015Z,102013.07
2018-02-24T20:19:03.443Z,102022.53
2018-02-24T20:21:31.891Z,102010.61
2018-02-24T20:24:00.441Z,102008.16
2018-02-24T20:26:28.869Z,102013.30
2018-02-24T20:28:57.308Z,102020.37
2018-02-24T20:31:25.874Z,102020.94
2018-02-24T20:33:55.101Z,102023.14
2018-02-24T20:36:23.497Z,102024.70
2018-02-24T20:38:51.911Z,102025.00
2018-02-24T20:41:20.376Z,102026.92
2018-02-24T20:43:48.821Z,102022.12
2018-02-24T20:46:17.279Z,102031.13
2018-02-24T20:48:46.663Z,102025.88
2018-02-24T20:51:15.083Z,102023.03
2018-02-24T20:53:43.575Z,102034.07
2018-02-24T20:56:11.987Z,102034.73
2018-02-24T20:58:40.424Z,102032.24
2018-02-24T21:01:08.829Z,102035.34
2018-02-24T21:03:37.262Z,102044.09
2018-02-24T21:06:06.160Z,102051.20
2018-02-24T21:08:34.672Z,102052.97
2018-02-24T21:11:03.158Z,102051.27
2018-02-24T21:13:31.575Z,102048.09
2018-02-24T21:16:00.138Z,102051.61
2018-02-24T21:18:28.722Z,102060.45
2018-02-24T21:20:57.940Z,102058.38
2018-02-24T21:23:27.712Z,102055.82
2018-02-24T21:25:56.114Z,102057.52
2018-02-24T21:28:25.294Z,102056.45
2018-02-24T21:30:55.201Z,102061.61
2018-02-24T21:36:18.591Z,102058.22
2018-02-24T21:38:57.265Z,102057.33
2018-02-24T21:41:25.744Z,102056.91
2018-02-24T21:43:54.289Z,102064.12
2018-02-24T21:46:23.453Z,102059.33
2018-02-24T21:48:51.855Z,102063.78
2018-02-24T21:51:23.117Z,102053.78
2018-02-24T21:53:53.752Z,102048.06
2018-02-24T21:56:22.206Z,102055.56
2018-02-24T21:58:50.657Z,102051.87
2018-02-24T22:01:19.053Z,102057.16
2018-02-24T22:03:47.793Z,102061.19
2018-02-24T22:06:22.202Z,102068.20
2018-02-24T22:08:54.937Z,102063.68
2018-02-24T22:11:23.419Z,102061.70
2018-02-24T22:14:03.121Z,102056.41
2018-02-24T22:16:31.588Z,102067.25
2018-02-24T22:19:00.759Z,102066.98
2018-02-24T22:21:29.126Z,102060.93
2018-02-24T22:23:57.640Z,102062.41
2018-02-24T22:26:26.235Z,102059.30
2018-02-24T22:28:55.483Z,102068.47
2018-02-24T22:31:23.855Z,102074.77
2018-02-24T22:33:52.274Z,102075.41
2018-02-24T22:36:20.764Z,102081.03
2018-02-24T22:38:49.173Z,102087.53
2018-02-24T22:41:17.916Z,102088.69
2018-02-24T22:43:46.328Z,102086.05
2018-02-24T22:46:15.524Z,102092.37
2018-02-24T22:48:50.031Z,102091.11
2018-02-24T22:51:18.470Z,102102.75
2018-02-24T22:53:46.868Z,102100.83
2018-02-24T22:56:15.373Z,102096.38
2018-02-24T22:58:44.647Z,102097.42
2018-02-24T23:01:13.216Z,102105.95
2018-02-24T23:03:41.615Z,102101.92
2018-02-24T23:06:10.054Z,102109.00
2018-02-24T23:08:38.426Z,102108.45
2018-02-24T23:11:06.825Z,102095.44
2018-02-24T23:13:35.235Z,102101.03
2018-02-24T23:16:03.626Z,102097.96
2018-02-24T23:18:32.056Z,102094.27
2018-02-24T23:21:00.448Z,102102.80
2018-02-24T23:23:28.838Z,102108.99
2018-02-24T23:25:57.197Z,102106.56
2018-02-24T23:28:25.574Z,102107.81
2018-02-24T23:30:54.283Z,102108.17
2018-02-24T23:33:22.738Z,102100.79
2018-02-24T23:35:51.254Z,102095.52
2018-02-24T23:38:19.706Z,102096.53
2018-02-24T23:40:48.225Z,102096.64
2018-02-24T23:43:16.612Z,102096.41
2018-02-24T23:45:45.006Z,102096.20
2018-02-24T23:48:13.402Z,102086.30
2018-02-24T23:50:42.582Z,102101.09
2018-02-24T23:53:10.972Z,102096.20
2018-02-24T23:55:40.152Z,102093.56
2018-02-24T23:58:08.699Z,102094.85
